createdAt,value
2023-04-02T00:02:13.846Z,97965.00
2023-04-02T00:05:11.506Z,97970.00
2023-04-02T00:08:10.197Z,97969.80
2023-04-02T00:11:07.971Z,97969.80
2023-04-02T00:14:06.103Z,97973.20
2023-04-02T00:17:03.535Z,97969.80
2023-04-02T00:20:01.399Z,97971.00
2023-04-02T00:22:58.837Z,97961.60
2023-04-02T00:25:56.577Z,97964.80
2023-04-02T00:28:54.038Z,97968.80
2023-04-02T00:31:51.840Z,97970.00
2023-04-02T00:34:49.631Z,97971.00
2023-04-02T00:37:47.084Z,97970.40
2023-04-02T00:40:44.694Z,97974.40
2023-04-02T00:43:44.654Z,97978.80
2023-04-02T00:46:47.532Z,97978.40
2023-04-02T00:49:44.978Z,97978.40
2023-04-02T00:52:42.633Z,97985.60
2023-04-02T00:55:40.403Z,97979.00
2023-04-02T00:58:37.894Z,97981.20
2023-04-02T01:01:36.837Z,97983.60
2023-04-02T01:04:34.796Z,97982.40
2023-04-02T01:07:32.731Z,97976.20
2023-04-02T01:10:30.195Z,97974.00
2023-04-02T01:13:27.925Z,97971.60
2023-04-02T01:16:26.127Z,97967.60
2023-04-02T01:19:23.590Z,97980.00
2023-04-02T01:22:21.175Z,97979.80
2023-04-02T01:25:18.937Z,97983.20
2023-04-02T01:28:19.881Z,97983.40
2023-04-02T01:31:17.698Z,97985.20
2023-04-02T01:34:15.481Z,97986.00
2023-04-02T01:37:13.222Z,97985.20
2023-04-02T01:40:11.432Z,97983.60
2023-04-02T01:43:09.120Z,97984.00
2023-04-02T01:46:06.591Z,97984.20
2023-04-02T01:49:04.222Z,97984.40
2023-04-02T01:52:01.659Z,97983.00
2023-04-02T01:55:00.054Z,97979.00
2023-04-02T01:57:57.685Z,97985.00
2023-04-02T02:00:55.132Z,97983.00
2023-04-02T02:03:52.881Z,97988.20
2023-04-02T02:06:50.449Z,97987.60
2023-04-02T02:09:48.047Z,97992.00
2023-04-02T02:12:46.132Z,97991.20
2023-04-02T02:15:43.575Z,97991.80
2023-04-02T02:18:41.364Z,97994.20
2023-04-02T02:21:38.821Z,97996.80
2023-04-02T02:24:37.821Z,98000.80
2023-04-02T02:27:35.612Z,97994.80
2023-04-02T02:30:33.266Z,97999.60
2023-04-02T02:33:30.707Z,97985.60
2023-04-02T02:36:28.994Z,97995.40
2023-04-02T02:39:28.473Z,97994.60
2023-04-02T02:42:26.003Z,97991.40
2023-04-02T02:45:23.709Z,97991.60
2023-04-02T02:48:21.177Z,97988.00
2023-04-02T02:51:18.939Z,97988.80
2023-04-02T02:54:16.800Z,97987.60
2023-04-02T02:57:14.316Z,97990.00
2023-04-02T03:00:13.260Z,97992.80
2023-04-02T03:03:10.845Z,97986.20
2023-04-02T03:06:08.922Z,97985.60
2023-04-02T03:09:06.438Z,97986.80
2023-04-02T03:12:04.372Z,97983.60
2023-04-02T03:15:03.005Z,97981.80
2023-04-02T03:18:00.639Z,97978.60
2023-04-02T03:20:58.289Z,97985.80
2023-04-02T03:23:55.750Z,97986.20
2023-04-02T03:26:53.496Z,97992.40
2023-04-02T03:29:51.989Z,97996.20
2023-04-02T03:32:49.644Z,97991.60
2023-04-02T03:35:47.146Z,97994.40
2023-04-02T03:38:44.869Z,97992.60
2023-04-02T03:41:42.528Z,97994.40
2023-04-02T03:44:39.995Z,97999.40
2023-04-02T03:47:38.291Z,98006.80
2023-04-02T03:50:35.866Z,98007.40
2023-04-02T03:53:33.486Z,98010.20
2023-04-02T03:56:31.717Z,98013.00
2023-04-02T03:59:29.421Z,98015.00
2023-04-02T04:02:27.350Z,98008.20
2023-04-02T04:05:24.985Z,98015.40
2023-04-02T04:08:22.648Z,98019.80
2023-04-02T04:11:20.294Z,98031.60
2023-04-02T04:14:18.075Z,98031.40
2023-04-02T04:17:16.130Z,98035.00
2023-04-02T04:20:13.618Z,98038.20
2023-04-02T04:23:11.307Z,98049.00
2023-04-02T04:26:10.635Z,98054.40
2023-04-02T04:29:10.062Z,98058.00
2023-04-02T04:32:07.577Z,98060.40
2023-04-02T04:35:06.648Z,98067.00
2023-04-02T04:38:04.281Z,98071.40
2023-04-02T04:41:01.719Z,98071.00
2023-04-02T04:43:59.522Z,98072.00
2023-04-02T04:46:56.957Z,98081.20
2023-04-02T04:49:54.652Z,98085.00
2023-04-02T04:52:52.136Z,98088.60
2023-04-02T04:55:49.881Z,98093.00
2023-04-02T04:58:47.343Z,98094.20
2023-04-02T05:01:45.437Z,98098.80
2023-04-02T05:04:43.118Z,98096.40
2023-04-02T05:07:40.603Z,98097.00
2023-04-02T05:10:38.327Z,98103.00
2023-04-02T05:13:35.849Z,98106.20
2023-04-02T05:16:33.618Z,98106.20
2023-04-02T05:19:31.207Z,98107.60
2023-04-02T05:22:28.966Z,98108.00
2023-04-02T05:25:26.728Z,98110.00
2023-04-02T05:28:24.159Z,98115.20
2023-04-02T05:31:21.897Z,98120.60
2023-04-02T05:34:19.363Z,98118.60
2023-04-02T05:37:18.194Z,98116.20
2023-04-02T05:40:15.635Z,98117.80
2023-04-02T05:43:13.449Z,98115.00
2023-04-02T05:46:10.905Z,98119.80
2023-04-02T05:49:08.764Z,98119.60
2023-04-02T05:52:06.641Z,98126.20
2023-04-02T05:55:04.091Z,98127.60
2023-04-02T06:01:04.842Z,98126.40
2023-04-02T06:04:02.467Z,98132.40
2023-04-02T06:07:00.107Z,98139.60
2023-04-02T06:09:57.530Z,98136.00
2023-04-02T06:12:55.296Z,98138.40
2023-04-02T06:15:52.764Z,98140.80
2023-04-02T06:18:50.428Z,98141.40
2023-04-02T06:21:49.963Z,98152.00
2023-04-02T06:24:47.741Z,98157.20
2023-04-02T06:27:45.453Z,98153.80
2023-04-02T06:30:42.950Z,98155.80
2023-04-02T06:33:40.823Z,98160.60
2023-04-02T06:36:38.269Z,98162.40
2023-04-02T06:39:36.062Z,98163.20
2023-04-02T06:42:33.817Z,98168.20
2023-04-02T06:45:31.286Z,98172.40
2023-04-02T06:48:28.955Z,98173.20
2023-04-02T06:51:26.405Z,98170.80
2023-04-02T06:54:24.155Z,98169.20
2023-04-02T06:57:21.729Z,98171.00
2023-04-02T07:00:21.229Z,98171.00
2023-04-02T07:03:18.690Z,98181.80
2023-04-02T07:06:16.386Z,98180.40
2023-04-02T07:09:14.043Z,98182.60
2023-04-02T07:12:11.500Z,98178.00
2023-04-02T07:15:09.250Z,98171.60
2023-04-02T07:18:07.067Z,98175.40
2023-04-02T07:21:04.866Z,98179.20
2023-04-02T07:24:02.488Z,98187.60
2023-04-02T07:26:59.946Z,98186.60
2023-04-02T07:29:57.580Z,98187.40
2023-04-02T07:32:55.027Z,98190.60
2023-04-02T07:35:54.252Z,98192.80
2023-04-02T07:38:51.816Z,98193.80
2023-04-02T07:41:49.506Z,98198.00
2023-04-02T07:44:47.112Z,98205.40
2023-04-02T07:47:44.597Z,98206.00
2023-04-02T07:50:42.332Z,98220.60
2023-04-02T07:53:41.886Z,98221.80
2023-04-02T07:56:39.644Z,98224.00
2023-04-02T07:59:37.093Z,98232.00
2023-04-02T08:02:34.887Z,98231.80
2023-04-02T08:05:32.578Z,98240.60
2023-04-02T08:08:30.414Z,98245.80
2023-04-02T08:11:29.655Z,98245.80
2023-04-02T08:14:28.708Z,98254.80
2023-04-02T08:17:26.592Z,98257.60
2023-04-02T08:20:24.708Z,98259.80
2023-04-02T08:23:22.787Z,98257.40
2023-04-02T08:26:20.217Z,98264.20
2023-04-02T08:29:17.908Z,98260.60
2023-04-02T08:32:16.084Z,98261.60
2023-04-02T08:35:13.515Z,98264.20
2023-04-02T08:38:11.312Z,98266.40
2023-04-02T08:41:08.767Z,98266.00
2023-04-02T08:44:07.485Z,98272.60
2023-04-02T08:47:04.932Z,98271.60
2023-04-02T08:50:02.561Z,98278.00
2023-04-02T08:53:00.203Z,98281.40
2023-04-02T08:56:00.031Z,98283.60
2023-04-02T08:58:58.062Z,98285.20
2023-04-02T09:01:55.665Z,98292.00
2023-04-02T09:04:53.532Z,98292.40
2023-04-02T09:07:51.042Z,98298.00
2023-04-02T09:10:48.822Z,98302.60
2023-04-02T09:13:46.807Z,98306.20
2023-04-02T09:16:44.276Z,98305.80
2023-04-02T09:19:42.587Z,98318.60
2023-04-02T09:22:40.137Z,98319.60
2023-04-02T09:25:38.114Z,98327.40
2023-04-02T09:28:35.800Z,98324.60
2023-04-02T09:31:33.514Z,98329.20
2023-04-02T09:34:31.157Z,98321.80
2023-04-02T09:37:29.553Z,98332.00
2023-04-02T09:40:27.617Z,98328.80
2023-04-02T09:43:25.074Z,98330.20
2023-04-02T09:46:22.714Z,98326.00
2023-04-02T09:49:20.146Z,98332.20
2023-04-02T09:52:17.960Z,98329.60
2023-04-02T09:55:15.703Z,98332.40
2023-04-02T09:58:13.158Z,98335.20
2023-04-02T10:01:11.285Z,98341.20
2023-04-02T10:04:08.763Z,98337.60
2023-04-02T10:07:06.734Z,98336.00
2023-04-02T10:10:04.566Z,98336.20
2023-04-02T10:13:02.378Z,98337.40
2023-04-02T10:16:00.400Z,98334.00
2023-04-02T10:18:58.597Z,98334.80
2023-04-02T10:21:56.957Z,98332.80
2023-04-02T10:24:54.405Z,98334.40
2023-04-02T10:27:52.319Z,98335.60
2023-04-02T10:30:50.124Z,98329.60
2023-04-02T10:33:47.940Z,98328.60
2023-04-02T10:36:46.800Z,98340.40
2023-04-02T10:39:44.397Z,98336.00
2023-04-02T10:42:42.457Z,98341.80
2023-04-02T10:45:39.903Z,98336.40
2023-04-02T10:48:37.664Z,98340.40
2023-04-02T10:51:35.116Z,98340.00
2023-04-02T10:54:33.645Z,98341.00
2023-04-02T10:57:31.548Z,98348.40
2023-04-02T11:00:29.462Z,98351.20
2023-04-02T11:03:27.265Z,98357.60
2023-04-02T11:06:24.826Z,98365.80
2023-04-02T11:09:22.566Z,98368.00
2023-04-02T11:12:20.021Z,98368.40
2023-04-02T11:15:18.103Z,98378.20
2023-04-02T11:18:15.553Z,98384.80
2023-04-02T11:21:13.175Z,98387.80
2023-04-02T11:24:10.994Z,98385.00
2023-04-02T11:27:08.496Z,98395.60
2023-04-02T11:30:06.682Z,98396.40
2023-04-02T11:33:04.379Z,98395.60
2023-04-02T11:36:02.468Z,98398.40
2023-04-02T11:39:07.634Z,98406.40
2023-04-02T11:42:14.708Z,98411.80
2023-04-02T11:45:12.848Z,98414.00
2023-04-02T11:48:10.395Z,98422.40
2023-04-02T11:51:08.403Z,98421.40
2023-04-02T11:54:06.152Z,98424.00
2023-04-02T11:57:06.133Z,98432.60
2023-04-02T12:00:05.433Z,98444.20
2023-04-02T12:03:04.839Z,98459.20
2023-04-02T12:06:04.132Z,98474.60
2023-04-02T12:09:05.277Z,98488.40
2023-04-02T12:12:03.821Z,98489.00
2023-04-02T12:15:01.274Z,98495.20
2023-04-02T12:17:59.450Z,98506.80
2023-04-02T12:20:57.254Z,98510.00
2023-04-02T12:23:55.099Z,98518.60
2023-04-02T12:26:54.578Z,98526.20
2023-04-02T12:29:52.372Z,98534.60
2023-04-02T12:32:51.167Z,98544.80
2023-04-02T12:35:49.117Z,98543.60
2023-04-02T12:38:47.311Z,98544.60
2023-04-02T12:41:44.793Z,98547.60
2023-04-02T12:44:42.565Z,98550.20
2023-04-02T12:47:40.639Z,98552.40
2023-04-02T12:50:38.972Z,98552.00
2023-04-02T12:53:36.816Z,98552.60
2023-04-02T12:56:34.291Z,98558.60
2023-04-02T12:59:34.154Z,98556.00
2023-04-02T13:02:31.865Z,98559.40
2023-04-02T13:05:32.617Z,98566.00
2023-04-02T13:08:31.030Z,98566.00
2023-04-02T13:11:28.467Z,98571.20
2023-04-02T13:14:26.261Z,98570.20
2023-04-02T13:17:23.711Z,98579.40
2023-04-02T13:20:21.378Z,98576.00
2023-04-02T13:23:19.084Z,98582.60
2023-04-02T13:26:17.661Z,98597.00
2023-04-02T13:29:15.620Z,98598.60
2023-04-02T13:32:13.513Z,98599.60
2023-04-02T13:35:11.740Z,98601.60
2023-04-02T13:38:09.511Z,98600.80
2023-04-02T13:41:07.332Z,98606.00
2023-04-02T13:44:04.904Z,98601.00
2023-04-02T13:47:02.936Z,98602.20
2023-04-02T13:50:00.701Z,98606.60
2023-04-02T13:52:58.634Z,98605.00
2023-04-02T13:55:56.924Z,98608.20
2023-04-02T13:58:54.441Z,98609.80
2023-04-02T14:01:52.944Z,98609.60
2023-04-02T14:04:51.169Z,98606.40
2023-04-02T14:07:50.938Z,98610.20
2023-04-02T14:10:48.658Z,98610.00
2023-04-02T14:13:46.913Z,98610.20
2023-04-02T14:16:44.693Z,98611.60
2023-04-02T14:19:42.666Z,98608.20
2023-04-02T14:22:40.809Z,98606.20
2023-04-02T14:25:38.844Z,98611.80
2023-04-02T14:28:39.557Z,98610.40
2023-04-02T14:31:38.263Z,98620.80
2023-04-02T14:34:36.180Z,98621.00
2023-04-02T14:37:34.415Z,98622.80
2023-04-02T14:40:32.657Z,98628.60
2023-04-02T14:43:30.334Z,98623.80
2023-04-02T14:46:27.845Z,98627.60
2023-04-02T14:49:25.780Z,98635.20
2023-04-02T14:52:24.005Z,98638.80
2023-04-02T14:55:24.450Z,98639.20
2023-04-02T14:58:23.363Z,98643.40
2023-04-02T15:01:23.025Z,98644.20
2023-04-02T15:04:22.078Z,98643.00
2023-04-02T15:07:20.382Z,98641.00
2023-04-02T15:10:18.852Z,98648.80
2023-04-02T15:13:17.251Z,98644.60
2023-04-02T15:16:15.564Z,98645.40
2023-04-02T15:19:13.464Z,98652.40
2023-04-02T15:22:12.378Z,98650.20
2023-04-02T15:25:10.504Z,98653.80
2023-04-02T15:28:09.040Z,98660.20
2023-04-02T15:31:07.802Z,98660.80
2023-04-02T15:34:07.602Z,98659.40
2023-04-02T15:37:06.028Z,98673.00
2023-04-02T15:40:05.764Z,98673.40
2023-04-02T15:43:04.846Z,98675.40
2023-04-02T15:46:04.078Z,98685.20
2023-04-02T15:49:02.084Z,98686.60
2023-04-02T15:52:01.027Z,98694.00
2023-04-02T15:55:00.013Z,98701.60
2023-04-02T15:57:58.998Z,98712.20
2023-04-02T16:00:59.233Z,98715.40
2023-04-02T16:03:57.300Z,98722.80
2023-04-02T16:06:55.313Z,98728.20
2023-04-02T16:09:52.948Z,98738.00
2023-04-02T16:12:51.031Z,98742.80
2023-04-02T16:15:51.815Z,98753.00
2023-04-02T16:18:51.431Z,98755.60
2023-04-02T16:21:50.952Z,98757.20
2023-04-02T16:24:48.857Z,98761.80
2023-04-02T16:27:47.631Z,98769.60
2023-04-02T16:30:46.245Z,98776.20
2023-04-02T16:33:44.908Z,98781.40
2023-04-02T16:36:43.513Z,98780.40
2023-04-02T16:39:41.686Z,98786.00
2023-04-02T16:42:44.206Z,98796.40
2023-04-02T16:45:43.305Z,98794.80
2023-04-02T16:48:44.582Z,98794.00
2023-04-02T16:51:44.096Z,98805.80
2023-04-02T16:54:42.021Z,98809.60
2023-04-02T16:57:40.668Z,98816.40
2023-04-02T17:00:39.381Z,98823.60
2023-04-02T17:03:41.720Z,98827.20
2023-04-02T17:06:41.987Z,98835.60
2023-04-02T17:09:41.359Z,98842.80
2023-04-02T17:12:40.355Z,98843.60
2023-04-02T17:15:39.861Z,98862.20
2023-04-02T17:18:39.491Z,98860.40
2023-04-02T17:21:39.188Z,98866.20
2023-04-02T17:24:38.645Z,98873.60
2023-04-02T17:27:37.383Z,98877.20
2023-04-02T17:30:35.657Z,98891.20
2023-04-02T17:33:34.757Z,98893.60
2023-04-02T17:36:43.018Z,98901.40
2023-04-02T17:39:46.032Z,98902.40
2023-04-02T17:42:45.269Z,98915.60
2023-04-02T17:45:47.545Z,98926.40
2023-04-02T17:48:46.846Z,98929.60
2023-04-02T17:51:46.549Z,98939.80
2023-04-02T17:54:45.652Z,98952.20
2023-04-02T17:57:44.943Z,98959.00
2023-04-02T18:00:47.768Z,98965.40
2023-04-02T18:03:51.092Z,98975.00
2023-04-02T18:06:50.809Z,98981.40
2023-04-02T18:09:49.280Z,98989.60
2023-04-02T18:12:48.521Z,98993.20
2023-04-02T18:15:48.502Z,99004.20
2023-04-02T18:18:46.630Z,99005.60
2023-04-02T18:21:47.609Z,99014.40
2023-04-02T18:24:49.646Z,99023.00
2023-04-02T18:27:47.908Z,99030.20
2023-04-02T18:30:46.764Z,99046.00
2023-04-02T18:33:47.417Z,99049.00
2023-04-02T18:36:46.378Z,99059.40
2023-04-02T18:39:46.178Z,99063.60
2023-04-02T18:42:48.886Z,99065.80
2023-04-02T18:45:49.332Z,99069.40
2023-04-02T18:48:50.078Z,99076.40
2023-04-02T18:51:48.652Z,99077.40
2023-04-02T18:54:47.329Z,99085.00
2023-04-02T18:57:47.328Z,99086.40
2023-04-02T19:00:48.883Z,99089.80
2023-04-02T19:03:50.506Z,99095.00
2023-04-02T19:06:54.648Z,99096.80
2023-04-02T19:09:53.729Z,99107.40
2023-04-02T19:12:53.647Z,99115.80
2023-04-02T19:15:58.335Z,99122.00
2023-04-02T19:18:58.229Z,99118.00
2023-04-02T19:21:59.851Z,99128.00
2023-04-02T19:24:59.274Z,99133.60
2023-04-02T19:27:59.138Z,99134.00
2023-04-02T19:30:59.295Z,99140.00
2023-04-02T19:33:59.292Z,99142.80
2023-04-02T19:37:05.204Z,99144.00
2023-04-02T19:40:10.554Z,99154.60
2023-04-02T19:43:09.728Z,99154.60
2023-04-02T19:46:08.822Z,99161.00
2023-04-02T19:49:08.002Z,99168.60
2023-04-02T19:52:08.193Z,99168.20
2023-04-02T19:55:15.044Z,99173.60
2023-04-02T19:58:19.721Z,99172.40
2023-04-02T20:01:18.453Z,99179.00
2023-04-02T20:04:17.823Z,99182.60
2023-04-02T20:07:17.046Z,99186.00
2023-04-02T20:10:17.477Z,99192.80
2023-04-02T20:13:22.525Z,99196.60
2023-04-02T20:16:22.306Z,99199.80
2023-04-02T20:19:21.530Z,99203.60
2023-04-02T20:22:19.973Z,99197.60
2023-04-02T20:25:18.314Z,99199.80
2023-04-02T20:28:16.781Z,99201.60
2023-04-02T20:31:17.398Z,99200.80
2023-04-02T20:34:15.992Z,99214.80
2023-04-02T20:37:14.530Z,99216.40
2023-04-02T20:40:13.517Z,99228.40
2023-04-02T20:43:13.382Z,99232.20
2023-04-02T20:46:12.438Z,99232.60
2023-04-02T20:49:10.703Z,99230.80
2023-04-02T20:52:08.470Z,99239.00
2023-04-02T20:55:06.093Z,99238.20
2023-04-02T20:58:03.864Z,99236.40
2023-04-02T21:01:01.612Z,99235.80
2023-04-02T21:03:59.169Z,99237.40
2023-04-02T21:06:58.020Z,99233.20
2023-04-02T21:09:55.615Z,99235.00
2023-04-02T21:12:53.942Z,99236.80
2023-04-02T21:15:51.591Z,99232.20
2023-04-02T21:18:49.341Z,99235.80
2023-04-02T21:21:47.134Z,99239.60
2023-04-02T21:24:44.579Z,99244.80
2023-04-02T21:27:42.236Z,99251.80
2023-04-02T21:30:39.688Z,99247.40
2023-04-02T21:33:37.482Z,99241.80
2023-04-02T21:36:34.968Z,99244.00
2023-04-02T21:39:33.946Z,99246.00
2023-04-02T21:42:32.210Z,99241.60
2023-04-02T21:45:29.705Z,99237.00
2023-04-02T21:48:27.545Z,99238.80
2023-04-02T21:51:24.991Z,99240.40
2023-04-02T21:54:22.671Z,99240.60
2023-04-02T21:57:20.129Z,99235.80
2023-04-02T22:00:19.557Z,99230.00
2023-04-02T22:03:25.115Z,99229.80
2023-04-02T22:06:29.113Z,99233.00
2023-04-02T22:09:26.768Z,99235.40
2023-04-02T22:12:24.340Z,99238.40
2023-04-02T22:15:22.085Z,99238.80
2023-04-02T22:18:19.563Z,99242.20
2023-04-02T22:21:17.340Z,99244.60
2023-04-02T22:24:14.991Z,99244.40
2023-04-02T22:27:12.920Z,99243.60
2023-04-02T22:30:10.815Z,99241.80
2023-04-02T22:33:08.306Z,99245.00
2023-04-02T22:36:06.242Z,99241.00
2023-04-02T22:39:05.617Z,99239.20
2023-04-02T22:42:03.621Z,99240.20
2023-04-02T22:45:04.501Z,99238.20
2023-04-02T22:48:02.009Z,99244.80
2023-04-02T22:50:59.781Z,99244.00
2023-04-02T22:53:57.291Z,99241.80
2023-04-02T22:56:55.738Z,99238.40
2023-04-02T22:59:53.509Z,99243.40
2023-04-02T23:02:50.986Z,99246.00
2023-04-02T23:05:48.744Z,99245.40
2023-04-02T23:08:46.184Z,99242.20
2023-04-02T23:11:43.877Z,99240.80
2023-04-02T23:14:41.338Z,99249.20
2023-04-02T23:17:39.141Z,99246.60
2023-04-02T23:20:37.171Z,99245.80
2023-04-02T23:23:35.258Z,99250.80
2023-04-02T23:26:33.244Z,99247.20
2023-04-02T23:29:30.930Z,99251.00
2023-04-02T23:32:28.662Z,99244.60
2023-04-02T23:35:26.452Z,99245.00
2023-04-02T23:38:24.126Z,99240.80
2023-04-02T23:41:21.609Z,99237.40
2023-04-02T23:44:19.306Z,99236.80
2023-04-02T23:47:17.089Z,99235.40
2023-04-02T23:50:14.539Z,99235.40
2023-04-02T23:53:12.319Z,99236.00
2023-04-02T23:56:09.932Z,99232.80
2023-04-02T23:59:07.704Z,99233.00
